createdAt,value
2018-07-13T00:02:42.076Z,8.18
2018-07-13T00:06:06.515Z,8.08
2018-07-13T00:09:30.979Z,8.15
2018-07-13T00:12:55.399Z,7.75
2018-07-13T00:16:19.566Z,7.37
2018-07-13T00:19:44.044Z,7.50
2018-07-13T00:23:08.502Z,8.53
2018-07-13T00:26:32.964Z,8.83
2018-07-13T00:29:57.442Z,8.18
2018-07-13T00:33:21.863Z,9.45
2018-07-13T00:36:46.289Z,8.03
2018-07-13T00:40:10.747Z,8.03
2018-07-13T00:43:35.186Z,9.03
2018-07-13T00:46:59.636Z,8.68
2018-07-13T00:50:24.098Z,8.90
2018-07-13T00:53:48.617Z,9.80
2018-07-13T00:57:13.017Z,9.83
2018-07-13T01:00:37.440Z,9.23
2018-07-13T01:04:01.871Z,8.65
2018-07-13T01:07:26.305Z,8.93
2018-07-13T01:10:50.748Z,9.80
2018-07-13T01:14:15.164Z,10.08
2018-07-13T01:17:39.582Z,9.00
2018-07-13T01:21:04.075Z,9.83
2018-07-13T01:24:28.516Z,10.05
2018-07-13T01:27:52.959Z,10.18
2018-07-13T01:31:17.391Z,9.65
2018-07-13T01:34:41.827Z,9.95
2018-07-13T01:38:06.330Z,11.53
2018-07-13T01:41:30.934Z,10.45
2018-07-13T01:44:55.344Z,10.58
2018-07-13T01:48:19.758Z,10.53
2018-07-13T01:51:44.186Z,12.35
2018-07-13T01:55:08.616Z,12.43
2018-07-13T01:58:33.050Z,11.88
2018-07-13T02:01:57.468Z,11.40
2018-07-13T02:13:27.901Z,10.65
2018-07-13T02:20:52.617Z,12.70
2018-07-13T02:24:33.225Z,12.23
2018-07-13T02:28:20.249Z,12.83
2018-07-13T02:32:11.243Z,14.73
2018-07-13T02:36:00.536Z,13.23
2018-07-13T02:39:45.917Z,13.00
2018-07-13T02:48:38.246Z,14.23
2018-07-13T02:52:22.860Z,15.15
2018-07-13T02:56:17.782Z,13.80
2018-07-13T03:00:01.188Z,13.40
2018-07-13T03:03:41.081Z,14.20
2018-07-13T03:07:16.327Z,14.77
2018-07-13T03:10:58.250Z,14.47
2018-07-13T03:14:48.088Z,16.20
2018-07-13T03:18:27.737Z,14.87
2018-07-13T03:22:16.246Z,16.03
2018-07-13T03:25:57.293Z,15.60
2018-07-13T03:29:50.786Z,16.20
2018-07-13T03:33:21.941Z,14.93
2018-07-13T03:37:04.048Z,15.83
2018-07-13T03:40:49.780Z,15.30
2018-07-13T03:44:43.161Z,14.43
2018-07-13T03:48:58.602Z,16.00
2018-07-13T03:54:11.067Z,14.77
2018-07-13T03:57:57.217Z,15.07
2018-07-13T04:09:35.580Z,16.13
2018-07-13T04:13:19.426Z,14.70
2018-07-13T04:17:05.770Z,16.40
2018-07-13T04:20:51.973Z,15.07
2018-07-13T04:24:34.490Z,15.47
2018-07-13T04:32:14.990Z,15.90
2018-07-13T04:35:56.593Z,15.93
2018-07-13T04:39:41.462Z,16.03
2018-07-13T04:44:27.313Z,15.57
2018-07-13T04:48:06.367Z,16.37
2018-07-13T04:51:31.016Z,17.00
2018-07-13T04:54:55.525Z,16.67
2018-07-13T04:58:19.802Z,17.03
2018-07-13T05:01:44.266Z,17.23
2018-07-13T05:05:09.200Z,17.50
2018-07-13T05:08:33.652Z,17.33
2018-07-13T05:11:58.064Z,17.33
2018-07-13T05:15:22.558Z,18.13
2018-07-13T05:18:46.985Z,17.65
2018-07-13T05:22:11.517Z,16.25
2018-07-13T05:25:36.556Z,20.27
2018-07-13T05:29:01.153Z,19.73
2018-07-13T05:32:25.735Z,21.17
2018-07-13T05:35:50.355Z,19.73
2018-07-13T05:39:14.866Z,20.27
2018-07-13T05:42:39.362Z,19.87
2018-07-13T05:46:03.928Z,19.57
2018-07-13T05:49:29.247Z,22.50
2018-07-13T05:53:18.859Z,20.80
2018-07-13T05:57:02.509Z,21.02
2018-07-13T06:00:27.111Z,22.50
2018-07-13T06:03:51.608Z,24.37
2018-07-13T06:07:16.085Z,24.15
2018-07-13T06:10:40.647Z,27.48
2018-07-13T06:14:05.354Z,27.37
2018-07-13T06:17:29.852Z,25.88
2018-07-13T06:20:54.358Z,25.02
2018-07-13T06:24:18.821Z,27.80
2018-07-13T06:27:43.273Z,28.02
2018-07-13T06:31:07.849Z,30.08
2018-07-13T06:34:32.336Z,24.30
2018-07-13T06:37:56.891Z,25.75
2018-07-13T06:41:21.437Z,22.82
2018-07-13T06:44:46.009Z,24.12
2018-07-13T06:48:11.093Z,22.55
2018-07-13T06:51:35.595Z,22.35
2018-07-13T06:55:00.078Z,25.05
2018-07-13T06:58:41.405Z,22.37
2018-07-13T07:02:05.879Z,21.52
2018-07-13T07:06:36.180Z,20.45
2018-07-13T07:10:00.695Z,18.35
2018-07-13T07:13:33.437Z,20.08
2018-07-13T07:16:57.895Z,22.65
2018-07-13T07:20:22.352Z,20.02
2018-07-13T07:23:46.826Z,22.10
2018-07-13T07:27:11.305Z,18.80
2018-07-13T07:30:35.879Z,17.67
2018-07-13T07:34:00.337Z,18.52
2018-07-13T07:37:24.986Z,17.25
2018-07-13T07:40:49.872Z,18.85
2018-07-13T07:44:14.363Z,18.52
2018-07-13T07:47:38.859Z,18.57
2018-07-13T07:51:03.322Z,16.15
2018-07-13T07:54:27.763Z,14.73
2018-07-13T07:57:52.232Z,15.48
2018-07-13T08:01:16.686Z,13.10
2018-07-13T08:04:41.215Z,13.93
2018-07-13T08:08:05.804Z,10.00
2018-07-13T08:11:30.200Z,10.00
2018-07-13T08:14:54.657Z,12.35
2018-07-13T08:18:19.106Z,11.83
2018-07-13T08:21:45.351Z,9.03
2018-07-13T08:25:14.574Z,8.45
2018-07-13T08:28:39.099Z,9.30
2018-07-13T08:32:03.630Z,8.20
2018-07-13T08:35:28.062Z,7.08
2018-07-13T08:38:52.502Z,8.25
2018-07-13T08:42:16.938Z,9.43
2018-07-13T08:45:41.095Z,8.65
2018-07-13T08:49:05.659Z,7.78
2018-07-13T08:52:30.655Z,8.25
2018-07-13T08:55:55.111Z,7.22
2018-07-13T08:59:19.612Z,8.35
2018-07-13T09:02:44.095Z,7.72
2018-07-13T09:06:08.640Z,6.72
2018-07-13T09:09:33.080Z,6.85
2018-07-13T09:12:57.626Z,6.85
2018-07-13T09:16:22.090Z,6.53
2018-07-13T09:19:46.656Z,6.22
2018-07-13T09:23:11.094Z,6.60
2018-07-13T09:26:35.666Z,6.40
2018-07-13T09:30:00.155Z,6.00
2018-07-13T09:33:24.630Z,6.03
2018-07-13T09:36:49.128Z,5.30
2018-07-13T09:40:13.598Z,4.95
2018-07-13T09:43:38.047Z,7.53
2018-07-13T09:47:02.761Z,6.60
2018-07-13T09:50:27.073Z,5.78
2018-07-13T09:53:51.621Z,6.22
2018-07-13T09:57:16.039Z,6.55
2018-07-13T10:01:48.323Z,5.95
2018-07-13T10:05:12.846Z,5.00
2018-07-13T10:08:37.559Z,5.58
2018-07-13T10:12:02.016Z,5.40
2018-07-13T10:15:26.543Z,4.72
2018-07-13T10:18:51.053Z,4.30
2018-07-13T10:22:19.383Z,4.12
2018-07-13T10:25:52.496Z,4.03
2018-07-13T10:29:22.981Z,3.17
2018-07-13T10:32:47.434Z,3.17
2018-07-13T10:36:17.068Z,3.67
2018-07-13T10:39:41.516Z,4.03
2018-07-13T10:43:07.945Z,4.30
2018-07-13T10:46:32.470Z,3.10
2018-07-13T10:49:56.908Z,4.00
2018-07-13T10:53:21.368Z,3.67
2018-07-13T10:56:45.876Z,3.33
2018-07-13T11:00:10.353Z,3.62
2018-07-13T11:03:35.060Z,3.45
2018-07-13T11:06:59.472Z,3.00
2018-07-13T11:10:23.957Z,3.20
2018-07-13T11:13:49.307Z,3.65
2018-07-13T11:17:13.785Z,3.45
2018-07-13T11:20:38.260Z,3.10
2018-07-13T11:24:02.831Z,3.08
2018-07-13T11:27:27.382Z,3.10
2018-07-13T11:30:51.827Z,3.45
2018-07-13T11:34:16.408Z,3.08
2018-07-13T11:37:40.857Z,2.90
2018-07-13T11:41:05.359Z,3.70
2018-07-13T11:44:29.810Z,3.33
2018-07-13T11:47:54.289Z,2.83
2018-07-13T11:51:18.754Z,3.45
2018-07-13T11:54:43.202Z,2.33
2018-07-13T11:58:07.920Z,2.90
2018-07-13T12:01:32.410Z,2.70
2018-07-13T12:04:56.868Z,2.95
2018-07-13T12:08:21.334Z,2.55
2018-07-13T12:11:45.908Z,2.30
2018-07-13T12:15:10.398Z,2.45
2018-07-13T12:18:34.844Z,4.10
2018-07-13T12:21:59.318Z,3.42
2018-07-13T12:25:23.870Z,3.15
2018-07-13T12:28:48.322Z,3.30
2018-07-13T12:32:12.771Z,2.95
2018-07-13T12:35:37.262Z,2.90
2018-07-13T12:39:01.727Z,3.30
2018-07-13T12:42:26.490Z,3.40
2018-07-13T12:45:50.931Z,3.35
2018-07-13T12:49:15.547Z,3.40
2018-07-13T12:52:39.994Z,4.22
2018-07-13T12:56:04.514Z,3.90
2018-07-13T12:59:29.120Z,3.10
2018-07-13T13:02:53.549Z,2.55
2018-07-13T13:06:18.074Z,3.60
2018-07-13T13:09:43.327Z,3.00
2018-07-13T13:13:07.573Z,3.45
2018-07-13T13:16:32.068Z,3.25
2018-07-13T13:19:56.598Z,3.72
2018-07-13T13:23:21.093Z,3.20
2018-07-13T13:26:45.611Z,3.58
2018-07-13T13:30:10.108Z,2.87
2018-07-13T13:33:34.631Z,3.27
2018-07-13T13:36:59.054Z,4.40
2018-07-13T13:40:23.530Z,3.40
2018-07-13T13:43:47.936Z,3.55
2018-07-13T13:47:12.336Z,3.77
2018-07-13T13:50:36.719Z,3.72
2018-07-13T13:54:01.167Z,3.77
2018-07-13T13:57:25.613Z,3.75
2018-07-13T14:00:50.115Z,3.85
2018-07-13T14:04:14.567Z,3.90
2018-07-13T14:07:38.978Z,3.35
2018-07-13T14:11:03.415Z,4.20
2018-07-13T14:14:27.882Z,3.80
2018-07-13T14:17:52.314Z,3.75
2018-07-13T14:21:16.754Z,3.83
2018-07-13T14:24:41.154Z,3.05
2018-07-13T14:28:05.775Z,3.08
2018-07-13T14:31:30.222Z,6.92
2018-07-13T14:34:54.638Z,3.65
2018-07-13T14:38:19.056Z,4.10
2018-07-13T14:41:43.491Z,3.55
2018-07-13T14:45:07.932Z,4.37
2018-07-13T14:48:32.353Z,4.28
2018-07-13T14:51:56.782Z,3.58
2018-07-13T14:55:21.234Z,3.67
2018-07-13T14:58:45.707Z,3.92
2018-07-13T15:02:10.144Z,3.58
2018-07-13T15:05:34.629Z,2.92
2018-07-13T15:08:59.031Z,2.80
2018-07-13T15:12:23.497Z,3.00
2018-07-13T15:15:47.965Z,3.10
2018-07-13T15:19:12.449Z,4.45
2018-07-13T15:22:36.883Z,3.55
2018-07-13T15:26:01.329Z,3.85
2018-07-13T15:29:25.809Z,3.90
2018-07-13T15:32:50.216Z,3.50
2018-07-13T15:36:14.732Z,15.38
2018-07-13T15:39:39.167Z,5.17
2018-07-13T15:43:03.620Z,4.78
2018-07-13T15:46:28.082Z,3.85
2018-07-13T15:49:52.510Z,3.87
2018-07-13T15:53:17.014Z,3.65
2018-07-13T15:56:41.475Z,3.67
2018-07-13T16:00:05.995Z,3.80
2018-07-13T16:03:37.046Z,4.62
2018-07-13T16:07:01.989Z,4.87
2018-07-13T16:10:26.425Z,3.33
2018-07-13T16:13:51.032Z,3.42
2018-07-13T16:17:15.804Z,3.55
2018-07-13T16:20:40.393Z,4.08
2018-07-13T16:24:04.883Z,4.42
2018-07-13T16:27:29.336Z,4.90
2018-07-13T16:30:53.796Z,4.75
2018-07-13T16:34:18.205Z,4.47
2018-07-13T16:37:42.622Z,4.72
2018-07-13T16:41:07.212Z,4.78
2018-07-13T16:44:31.634Z,4.00
2018-07-13T16:47:56.075Z,4.00
2018-07-13T16:51:20.524Z,3.60
2018-07-13T16:54:44.973Z,3.35
2018-07-13T16:58:09.405Z,3.77
2018-07-13T17:01:33.902Z,4.55
2018-07-13T17:04:58.426Z,4.10
2018-07-13T17:08:22.866Z,6.33
2018-07-13T17:11:47.909Z,4.50
2018-07-13T17:15:12.454Z,5.30
2018-07-13T17:18:37.444Z,3.70
2018-07-13T17:22:02.738Z,3.90
2018-07-13T17:25:27.177Z,3.80
2018-07-13T17:28:51.765Z,4.10
2018-07-13T17:32:16.227Z,4.35
2018-07-13T17:35:40.658Z,3.60
2018-07-13T17:39:06.830Z,4.12
2018-07-13T17:42:32.699Z,13.53
2018-07-13T17:45:57.787Z,10.68
2018-07-13T17:49:23.115Z,5.00
2018-07-13T17:52:48.108Z,22.30
2018-07-13T17:56:12.762Z,4.67
2018-07-13T17:59:37.772Z,11.53
2018-07-13T18:03:02.489Z,33.40
2018-07-13T18:06:27.555Z,13.25
2018-07-13T18:09:52.283Z,30.60
2018-07-13T18:13:17.487Z,59.58
2018-07-13T18:16:42.457Z,83.10
2018-07-13T18:20:07.047Z,30.75
2018-07-13T18:23:31.757Z,23.27
2018-07-13T18:26:56.771Z,43.68
2018-07-13T18:30:21.828Z,112.15
2018-07-13T18:33:47.329Z,89.03
2018-07-13T18:37:12.614Z,58.73
2018-07-13T18:40:38.642Z,36.98
2018-07-13T18:44:03.110Z,24.15
2018-07-13T18:47:27.684Z,10.63
2018-07-13T18:50:52.456Z,8.30
2018-07-13T18:54:17.299Z,7.30
2018-07-13T18:57:42.143Z,6.30
2018-07-13T19:01:06.629Z,5.30
2018-07-13T19:04:32.163Z,4.75
2018-07-13T19:07:57.232Z,5.20
2018-07-13T19:15:03.675Z,4.55
2018-07-13T19:18:36.941Z,4.40
2018-07-13T19:22:09.443Z,4.95
2018-07-13T19:25:37.335Z,4.65
2018-07-13T19:29:02.131Z,4.75
2018-07-13T19:32:26.570Z,4.25
2018-07-13T19:35:52.283Z,4.75
2018-07-13T19:39:18.040Z,4.78
2018-07-13T19:42:44.720Z,4.95
2018-07-13T19:46:11.801Z,4.75
2018-07-13T19:49:37.301Z,4.60
2018-07-13T19:53:02.827Z,6.15
2018-07-13T19:56:27.272Z,5.37
2018-07-13T20:00:08.966Z,5.65
2018-07-13T20:03:33.414Z,6.58
2018-07-13T20:06:57.894Z,6.50
2018-07-13T20:10:22.443Z,5.53
2018-07-13T20:13:46.872Z,4.87
2018-07-13T20:17:11.337Z,4.70
2018-07-13T20:20:35.730Z,5.53
2018-07-13T20:24:00.151Z,5.78
2018-07-13T20:27:24.586Z,5.28
2018-07-13T20:30:49.031Z,6.37
2018-07-13T20:34:13.633Z,6.22
2018-07-13T20:37:38.062Z,5.85
2018-07-13T20:41:02.489Z,5.72
2018-07-13T20:44:26.948Z,5.85
2018-07-13T20:47:51.422Z,5.10
2018-07-13T20:51:15.880Z,4.92
2018-07-13T20:54:40.312Z,6.30
2018-07-13T20:58:04.798Z,5.58
2018-07-13T21:01:29.236Z,5.20
2018-07-13T21:04:53.738Z,4.97
2018-07-13T21:08:18.200Z,4.85
2018-07-13T21:11:42.645Z,5.40
2018-07-13T21:15:07.136Z,4.80
2018-07-13T21:18:31.559Z,5.15
2018-07-13T21:21:55.999Z,5.30
2018-07-13T21:25:20.434Z,5.62
2018-07-13T21:28:44.854Z,5.08
2018-07-13T21:32:09.319Z,4.80
2018-07-13T21:35:33.723Z,6.08
2018-07-13T21:38:58.200Z,5.67
2018-07-13T21:42:22.648Z,5.03
2018-07-13T21:45:47.079Z,5.28
2018-07-13T21:49:11.555Z,5.58
2018-07-13T21:52:36.098Z,5.55
2018-07-13T21:56:00.558Z,5.62
2018-07-13T21:59:25.076Z,5.25
2018-07-13T22:02:49.567Z,5.62
2018-07-13T22:06:14.004Z,5.83
2018-07-13T22:09:38.449Z,6.33
2018-07-13T22:13:02.920Z,5.87
2018-07-13T22:16:27.399Z,6.60
2018-07-13T22:19:51.822Z,6.47
2018-07-13T22:23:16.361Z,7.10
2018-07-13T22:26:40.821Z,7.58
2018-07-13T22:30:05.693Z,7.10
2018-07-13T22:33:30.129Z,8.95
2018-07-13T22:36:54.628Z,7.60
2018-07-13T22:40:19.135Z,6.67
2018-07-13T22:43:43.514Z,7.55
2018-07-13T22:47:07.953Z,7.28
2018-07-13T22:50:32.370Z,8.03
2018-07-13T22:53:56.788Z,8.33
2018-07-13T22:57:21.224Z,7.03
2018-07-13T23:00:45.594Z,7.00
2018-07-13T23:04:10.039Z,7.30
2018-07-13T23:07:34.431Z,7.47
2018-07-13T23:10:59.513Z,8.25
2018-07-13T23:14:23.922Z,7.70
2018-07-13T23:17:48.334Z,8.35
2018-07-13T23:21:12.773Z,7.78
2018-07-13T23:24:37.212Z,9.48
2018-07-13T23:28:01.636Z,7.12
2018-07-13T23:31:26.067Z,8.38
2018-07-13T23:34:50.558Z,9.25
2018-07-13T23:38:15.059Z,7.75
2018-07-13T23:41:39.494Z,8.50
2018-07-13T23:45:03.951Z,8.85
2018-07-13T23:48:28.361Z,8.28
2018-07-13T23:51:52.783Z,9.40
2018-07-13T23:55:17.215Z,7.97
2018-07-13T23:58:41.732Z,8.18
